Terminal Aerodrome Forecast
Issued by NWS Louisville, KY

Home | Current Version | Previous Version | Text Only | Print | Product List | Glossary On
Versions: 1 2 3 4 5 6 7 8 9 10 11 12 13 14 15 16
000
FTUS43 KLMK 202320
TAFLEX
TAF
KLEX 202320Z 2100/2124 15009KT P6SM FEW040 BKN100
      TEMPO 2103/2106 VRB15G25KT 5SM -TSRA BKN040CB
     FM210600 17007KT P6SM VCSH SCT030 BKN060
     FM211200 18009KT P6SM VCSH BKN025
     FM211700 21010KT P6SM VCSH BKN025=

USA.gov is the U.S. government's official web portal to all federal, state and local government web resources and services.